sensor_id;sensor_type;location;lat;lon;timestamp;pressure;altitude;pressure_sealevel;temperature;humidity
49102;BME280;34913;47.520;19.186;2023-07-29T00:01:49;99450.94;;;20.32;100.00
49102;BME280;34913;47.520;19.186;2023-07-29T00:04:15;99450.09;;;20.25;100.00
49102;BME280;34913;47.520;19.186;2023-07-29T00:06:41;99452.13;;;20.16;100.00
49102;BME280;34913;47.520;19.186;2023-07-29T00:09:06;99452.50;;;20.13;100.00
49102;BME280;34913;47.520;19.186;2023-07-29T00:11:32;99453.78;;;20.17;100.00
49102;BME280;34913;47.520;19.186;2023-07-29T00:14:00;99443.41;;;20.14;100.00
49102;BME280;34913;47.520;19.186;2023-07-29T00:16:25;99453.34;;;20.14;100.00
49102;BME280;34913;47.520;19.186;2023-07-29T00:18:51;99446.91;;;20.08;100.00
49102;BME280;34913;47.520;19.186;2023-07-29T00:21:17;99452.31;;;20.08;100.00
49102;BME280;34913;47.520;19.186;2023-07-29T00:23:42;99448.34;;;20.04;100.00
49102;BME280;34913;47.520;19.186;2023-07-29T00:26:07;99445.63;;;19.97;100.00
49102;BME280;34913;47.520;19.186;2023-07-29T00:28:33;99443.53;;;19.93;100.00
49102;BME280;34913;47.520;19.186;2023-07-29T00:30:58;99444.16;;;19.95;100.00
49102;BME280;34913;47.520;19.186;2023-07-29T00:33:24;99446.66;;;19.96;100.00
49102;BME280;34913;47.520;19.186;2023-07-29T00:35:49;99441.47;;;19.95;100.00
49102;BME280;34913;47.520;19.186;2023-07-29T00:38:15;99441.28;;;20.03;100.00
49102;BME280;34913;47.520;19.186;2023-07-29T00:40:40;99446.06;;;20.01;100.00
49102;BME280;34913;47.520;19.186;2023-07-29T00:43:06;99440.44;;;19.96;100.00
49102;BME280;34913;47.520;19.186;2023-07-29T00:45:32;99440.63;;;19.94;100.00
49102;BME280;34913;47.520;19.186;2023-07-29T00:47:58;99437.50;;;19.84;100.00
49102;BME280;34913;47.520;19.186;2023-07-29T00:50:24;99444.25;;;19.73;100.00
49102;BME280;34913;47.520;19.186;2023-07-29T00:52:52;99441.94;;;19.64;100.00
49102;BME280;34913;47.520;19.186;2023-07-29T00:55:18;99445.03;;;19.61;100.00
49102;BME280;34913;47.520;19.186;2023-07-29T00:57:44;99442.91;;;19.56;100.00
49102;BME280;34913;47.520;19.186;2023-07-29T01:00:14;99449.53;;;19.53;100.00
49102;BME280;34913;47.520;19.186;2023-07-29T01:02:40;99441.66;;;19.52;100.00
49102;BME280;34913;47.520;19.186;2023-07-29T01:05:06;99449.28;;;19.48;100.00
49102;BME280;34913;47.520;19.186;2023-07-29T01:10:18;99450.25;;;19.41;100.00
49102;BME280;34913;47.520;19.186;2023-07-29T01:12:54;99449.16;;;19.29;100.00
49102;BME280;34913;47.520;19.186;2023-07-29T01:18:01;99443.56;;;19.30;100.00
49102;BME280;34913;47.520;19.186;2023-07-29T01:20:33;99446.00;;;19.25;100.00
49102;BME280;34913;47.520;19.186;2023-07-29T01:22:58;99436.72;;;19.28;100.00
49102;BME280;34913;47.520;19.186;2023-07-29T01:25:24;99435.50;;;19.30;100.00
49102;BME280;34913;47.520;19.186;2023-07-29T01:27:50;99439.59;;;19.26;100.00
49102;BME280;34913;47.520;19.186;2023-07-29T01:30:24;99430.75;;;19.32;100.00
49102;BME280;34913;47.520;19.186;2023-07-29T01:33:00;99436.38;;;19.37;100.00
49102;BME280;34913;47.520;19.186;2023-07-29T01:35:36;99440.78;;;19.45;100.00
49102;BME280;34913;47.520;19.186;2023-07-29T01:38:10;99433.94;;;19.49;100.00
49102;BME280;34913;47.520;19.186;2023-07-29T01:40:39;99431.25;;;19.49;100.00
49102;BME280;34913;47.520;19.186;2023-07-29T01:43:05;99421.78;;;19.53;100.00
49102;BME280;34913;47.520;19.186;2023-07-29T01:45:32;99430.09;;;19.58;100.00
49102;BME280;34913;47.520;19.186;2023-07-29T01:48:01;99432.41;;;19.61;100.00
49102;BME280;34913;47.520;19.186;2023-07-29T01:50:27;99428.28;;;19.65;100.00
49102;BME280;34913;47.520;19.186;2023-07-29T01:52:52;99430.91;;;19.59;100.00
49102;BME280;34913;47.520;19.186;2023-07-29T01:55:17;99438.53;;;19.55;100.00
49102;BME280;34913;47.520;19.186;2023-07-29T01:57:43;99425.66;;;19.50;100.00
49102;BME280;34913;47.520;19.186;2023-07-29T02:00:10;99430.84;;;19.45;100.00
49102;BME280;34913;47.520;19.186;2023-07-29T02:02:37;99437.41;;;19.36;100.00
49102;BME280;34913;47.520;19.186;2023-07-29T02:05:03;99440.16;;;19.15;100.00
49102;BME280;34913;47.520;19.186;2023-07-29T02:07:28;99434.28;;;19.05;100.00
49102;BME280;34913;47.520;19.186;2023-07-29T02:09:54;99433.88;;;19.08;100.00
49102;BME280;34913;47.520;19.186;2023-07-29T02:12:19;99430.91;;;18.96;100.00
49102;BME280;34913;47.520;19.186;2023-07-29T02:14:45;99436.84;;;18.91;100.00
49102;BME280;34913;47.520;19.186;2023-07-29T02:17:10;99440.31;;;18.85;100.00
49102;BME280;34913;47.520;19.186;2023-07-29T02:19:35;99433.22;;;18.78;100.00
49102;BME280;34913;47.520;19.186;2023-07-29T02:22:01;99438.78;;;18.76;100.00
49102;BME280;34913;47.520;19.186;2023-07-29T02:24:26;99427.97;;;18.69;100.00
49102;BME280;34913;47.520;19.186;2023-07-29T02:26:52;99434.38;;;18.68;100.00
49102;BME280;34913;47.520;19.186;2023-07-29T02:29:17;99442.03;;;18.72;100.00
49102;BME280;34913;47.520;19.186;2023-07-29T02:31:42;99443.72;;;18.73;100.00
49102;BME280;34913;47.520;19.186;2023-07-29T02:34:09;99441.81;;;18.66;100.00
49102;BME280;34913;47.520;19.186;2023-07-29T02:36:34;99441.81;;;18.66;100.00
49102;BME280;34913;47.520;19.186;2023-07-29T02:39:00;99449.97;;;18.58;100.00
49102;BME280;34913;47.520;19.186;2023-07-29T02:41:25;99438.75;;;18.55;100.00
49102;BME280;34913;47.520;19.186;2023-07-29T02:43:51;99443.28;;;18.54;100.00
49102;BME280;34913;47.520;19.186;2023-07-29T02:46:17;99436.25;;;18.53;100.00
49102;BME280;34913;47.520;19.186;2023-07-29T02:48:43;99444.91;;;18.49;100.00
49102;BME280;34913;47.520;19.186;2023-07-29T02:51:09;99441.50;;;18.40;100.00
49102;BME280;34913;47.520;19.186;2023-07-29T02:53:34;99443.63;;;18.45;100.00
49102;BME280;34913;47.520;19.186;2023-07-29T02:56:02;99446.09;;;18.46;100.00
49102;BME280;34913;47.520;19.186;2023-07-29T02:58:28;99455.59;;;18.42;100.00
49102;BME280;34913;47.520;19.186;2023-07-29T03:01:03;99448.09;;;18.37;100.00
49102;BME280;34913;47.520;19.186;2023-07-29T03:03:29;99454.28;;;18.38;100.00
49102;BME280;34913;47.520;19.186;2023-07-29T03:06:06;99452.19;;;18.33;100.00
49102;BME280;34913;47.520;19.186;2023-07-29T03:08:31;99455.13;;;18.38;100.00
49102;BME280;34913;47.520;19.186;2023-07-29T03:10:57;99451.59;;;18.38;100.00
49102;BME280;34913;47.520;19.186;2023-07-29T03:13:23;99448.78;;;18.46;100.00
49102;BME280;34913;47.520;19.186;2023-07-29T03:15:48;99443.06;;;18.49;100.00
49102;BME280;34913;47.520;19.186;2023-07-29T03:18:15;99452.97;;;18.49;100.00
49102;BME280;34913;47.520;19.186;2023-07-29T03:20:40;99451.69;;;18.45;100.00
49102;BME280;34913;47.520;19.186;2023-07-29T03:23:06;99446.75;;;18.48;100.00
49102;BME280;34913;47.520;19.186;2023-07-29T03:25:31;99451.03;;;18.42;100.00
49102;BME280;34913;47.520;19.186;2023-07-29T03:27:57;99451.59;;;18.38;100.00
49102;BME280;34913;47.520;19.186;2023-07-29T03:30:22;99452.19;;;18.33;100.00
49102;BME280;34913;47.520;19.186;2023-07-29T03:32:49;99465.63;;;18.33;100.00
49102;BME280;34913;47.520;19.186;2023-07-29T03:35:14;99456.06;;;18.31;100.00
49102;BME280;34913;47.520;19.186;2023-07-29T03:37:40;99460.06;;;18.35;100.00
49102;BME280;34913;47.520;19.186;2023-07-29T03:40:06;99456.25;;;18.29;100.00
49102;BME280;34913;47.520;19.186;2023-07-29T03:42:32;99461.44;;;18.31;100.00
49102;BME280;34913;47.520;19.186;2023-07-29T03:44:58;99455.81;;;18.26;100.00
49102;BME280;34913;47.520;19.186;2023-07-29T03:47:23;99463.59;;;18.21;100.00
49102;BME280;34913;47.520;19.186;2023-07-29T03:49:49;99461.31;;;18.18;100.00
49102;BME280;34913;47.520;19.186;2023-07-29T03:52:14;99464.63;;;18.20;100.00
49102;BME280;34913;47.520;19.186;2023-07-29T03:54:40;99456.47;;;18.28;100.00
49102;BME280;34913;47.520;19.186;2023-07-29T03:57:06;99446.53;;;18.28;100.00
49102;BME280;34913;47.520;19.186;2023-07-29T03:59:31;99459.53;;;18.25;100.00
49102;BME280;34913;47.520;19.186;2023-07-29T04:01:56;99463.59;;;18.21;100.00
49102;BME280;34913;47.520;19.186;2023-07-29T04:04:22;99461.44;;;18.31;100.00
49102;BME280;34913;47.520;19.186;2023-07-29T04:06:47;99465.22;;;18.36;100.00
49102;BME280;34913;47.520;19.186;2023-07-29T04:09:12;99467.09;;;18.36;100.00
49102;BME280;34913;47.520;19.186;2023-07-29T04:11:38;99467.03;;;18.51;100.00
49102;BME280;34913;47.520;19.186;2023-07-29T04:14:04;99473.94;;;18.75;100.00
49102;BME280;34913;47.520;19.186;2023-07-29T04:16:29;99466.72;;;19.03;100.00
49102;BME280;34913;47.520;19.186;2023-07-29T04:18:54;99471.50;;;19.29;100.00
49102;BME280;34913;47.520;19.186;2023-07-29T04:21:20;99469.19;;;19.54;100.00
49102;BME280;34913;47.520;19.186;2023-07-29T04:23:45;99468.38;;;19.88;99.46
49102;BME280;34913;47.520;19.186;2023-07-29T04:26:11;99469.69;;;20.47;96.31
49102;BME280;34913;47.520;19.186;2023-07-29T04:28:36;99477.44;;;21.09;91.73
49102;BME280;34913;47.520;19.186;2023-07-29T04:31:02;99474.09;;;21.40;88.67
49102;BME280;34913;47.520;19.186;2023-07-29T04:33:29;99470.34;;;21.55;88.18
49102;BME280;34913;47.520;19.186;2023-07-29T04:35:55;99470.47;;;21.86;87.13
49102;BME280;34913;47.520;19.186;2023-07-29T04:38:20;99472.44;;;22.31;85.11
49102;BME280;34913;47.520;19.186;2023-07-29T04:40:46;99473.84;;;22.40;83.97
49102;BME280;34913;47.520;19.186;2023-07-29T04:43:11;99466.00;;;22.63;85.08
49102;BME280;34913;47.520;19.186;2023-07-29T04:45:42;99467.28;;;22.61;85.32
49102;BME280;34913;47.520;19.186;2023-07-29T04:48:07;99476.44;;;22.60;84.69
49102;BME280;34913;47.520;19.186;2023-07-29T04:50:33;99475.09;;;23.07;84.45
49102;BME280;34913;47.520;19.186;2023-07-29T04:52:58;99464.75;;;23.22;80.42
49102;BME280;34913;47.520;19.186;2023-07-29T04:55:24;99467.78;;;23.32;79.19
49102;BME280;34913;47.520;19.186;2023-07-29T04:57:49;99468.75;;;23.38;81.70
49102;BME280;34913;47.520;19.186;2023-07-29T05:00:14;99474.38;;;23.18;80.51
49102;BME280;34913;47.520;19.186;2023-07-29T05:02:40;99470.59;;;23.19;81.05
49102;BME280;34913;47.520;19.186;2023-07-29T05:05:06;99474.53;;;23.48;80.62
49102;BME280;34913;47.520;19.186;2023-07-29T05:07:31;99481.28;;;23.82;77.86
49102;BME280;34913;47.520;19.186;2023-07-29T05:09:57;99483.97;;;24.01;74.62
49102;BME280;34913;47.520;19.186;2023-07-29T05:12:22;99478.91;;;24.41;74.39
49102;BME280;34913;47.520;19.186;2023-07-29T05:14:48;99492.78;;;24.93;71.25
49102;BME280;34913;47.520;19.186;2023-07-29T05:17:13;99483.09;;;25.39;68.16
49102;BME280;34913;47.520;19.186;2023-07-29T05:19:39;99481.44;;;25.49;67.96
49102;BME280;34913;47.520;19.186;2023-07-29T05:22:04;99481.28;;;26.03;66.30
49102;BME280;34913;47.520;19.186;2023-07-29T05:24:29;99481.88;;;26.45;63.14
49102;BME280;34913;47.520;19.186;2023-07-29T05:26:55;99490.19;;;26.95;59.68
49102;BME280;34913;47.520;19.186;2023-07-29T05:29:20;99488.31;;;27.13;60.84
49102;BME280;34913;47.520;19.186;2023-07-29T05:31:46;99485.84;;;27.45;60.49
49102;BME280;34913;47.520;19.186;2023-07-29T05:34:11;99491.19;;;27.73;56.52
49102;BME280;34913;47.520;19.186;2023-07-29T05:36:36;99483.75;;;27.69;55.62
49102;BME280;34913;47.520;19.186;2023-07-29T05:39:02;99492.41;;;27.66;55.73
49102;BME280;34913;47.520;19.186;2023-07-29T05:41:27;99500.13;;;27.69;58.69
49102;BME280;34913;47.520;19.186;2023-07-29T05:43:54;99511.69;;;27.76;59.21
49102;BME280;34913;47.520;19.186;2023-07-29T05:46:19;99507.72;;;28.05;57.17
49102;BME280;34913;47.520;19.186;2023-07-29T05:48:44;99502.94;;;27.96;57.03
49102;BME280;34913;47.520;19.186;2023-07-29T05:51:10;99519.31;;;27.96;55.47
49102;BME280;34913;47.520;19.186;2023-07-29T05:53:35;99508.34;;;27.91;54.89
49102;BME280;34913;47.520;19.186;2023-07-29T05:56:01;99519.56;;;27.94;55.46
49102;BME280;34913;47.520;19.186;2023-07-29T05:58:26;99520.94;;;27.58;58.63
49102;BME280;34913;47.520;19.186;2023-07-29T06:00:52;99517.47;;;27.00;59.63
49102;BME280;34913;47.520;19.186;2023-07-29T06:03:17;99523.41;;;26.81;59.29
49102;BME280;34913;47.520;19.186;2023-07-29T06:05:42;99529.13;;;26.39;59.16
49102;BME280;34913;47.520;19.186;2023-07-29T06:08:08;99528.69;;;26.19;60.11
49102;BME280;34913;47.520;19.186;2023-07-29T06:10:34;99534.56;;;26.27;61.78
49102;BME280;34913;47.520;19.186;2023-07-29T06:12:59;99543.25;;;26.01;59.61
49102;BME280;34913;47.520;19.186;2023-07-29T06:15:25;99537.56;;;25.44;62.41
49102;BME280;34913;47.520;19.186;2023-07-29T06:17:50;99545.34;;;24.98;64.01
49102;BME280;34913;47.520;19.186;2023-07-29T06:20:16;99548.56;;;24.77;67.35
49102;BME280;34913;47.520;19.186;2023-07-29T06:22:41;99553.44;;;25.05;67.04
49102;BME280;34913;47.520;19.186;2023-07-29T06:25:08;99552.44;;;24.99;68.15
49102;BME280;34913;47.520;19.186;2023-07-29T06:27:33;99549.31;;;24.96;66.65
49102;BME280;34913;47.520;19.186;2023-07-29T06:29:59;99547.22;;;24.98;68.78
49102;BME280;34913;47.520;19.186;2023-07-29T06:32:24;99547.66;;;24.83;69.28
49102;BME280;34913;47.520;19.186;2023-07-29T06:34:50;99554.66;;;25.02;67.88
49102;BME280;34913;47.520;19.186;2023-07-29T06:37:17;99552.09;;;25.49;66.58
49102;BME280;34913;47.520;19.186;2023-07-29T06:39:42;99556.88;;;25.77;64.71
49102;BME280;34913;47.520;19.186;2023-07-29T06:42:08;99553.91;;;26.02;62.11
49102;BME280;34913;47.520;19.186;2023-07-29T06:44:33;99551.50;;;26.41;61.06
49102;BME280;34913;47.520;19.186;2023-07-29T06:46:58;99545.81;;;26.99;59.80
49102;BME280;34913;47.520;19.186;2023-07-29T06:49:24;99551.81;;;27.47;55.46
49102;BME280;34913;47.520;19.186;2023-07-29T06:51:49;99553.38;;;27.93;55.49
49102;BME280;34913;47.520;19.186;2023-07-29T06:54:16;99544.75;;;28.01;53.09
49102;BME280;34913;47.520;19.186;2023-07-29T06:56:42;99545.19;;;28.32;52.54
49102;BME280;34913;47.520;19.186;2023-07-29T06:59:07;99549.03;;;28.14;52.54
49102;BME280;34913;47.520;19.186;2023-07-29T07:01:33;99541.91;;;28.30;51.28
49102;BME280;34913;47.520;19.186;2023-07-29T07:03:59;99545.84;;;28.61;52.83
49102;BME280;34913;47.520;19.186;2023-07-29T07:06:24;99546.97;;;28.43;52.56
49102;BME280;34913;47.520;19.186;2023-07-29T07:08:50;99548.81;;;29.08;51.38
49102;BME280;34913;47.520;19.186;2023-07-29T07:11:17;99554.91;;;29.15;50.75
49102;BME280;34913;47.520;19.186;2023-07-29T07:13:43;99555.50;;;29.50;48.94
49102;BME280;34913;47.520;19.186;2023-07-29T07:16:08;99542.22;;;29.68;48.77
49102;BME280;34913;47.520;19.186;2023-07-29T07:18:33;99543.00;;;29.32;47.68
49102;BME280;34913;47.520;19.186;2023-07-29T07:20:59;99541.66;;;29.02;50.82
49102;BME280;34913;47.520;19.186;2023-07-29T07:23:24;99536.94;;;29.25;50.63
49102;BME280;34913;47.520;19.186;2023-07-29T07:25:50;99541.94;;;29.38;48.98
49102;BME280;34913;47.520;19.186;2023-07-29T07:28:15;99537.41;;;29.48;50.08
49102;BME280;34913;47.520;19.186;2023-07-29T07:30:41;99546.47;;;29.22;50.55
49102;BME280;34913;47.520;19.186;2023-07-29T07:33:06;99549.44;;;29.47;49.96
49102;BME280;34913;47.520;19.186;2023-07-29T07:35:32;99541.88;;;29.55;47.10
49102;BME280;34913;47.520;19.186;2023-07-29T07:37:57;99541.06;;;29.59;49.84
49102;BME280;34913;47.520;19.186;2023-07-29T07:40:24;99530.41;;;29.31;49.90
49102;BME280;34913;47.520;19.186;2023-07-29T07:42:49;99532.28;;;29.25;49.85
49102;BME280;34913;47.520;19.186;2023-07-29T07:45:14;99530.94;;;29.28;50.67
49102;BME280;34913;47.520;19.186;2023-07-29T07:47:40;99526.13;;;29.40;48.59
49102;BME280;34913;47.520;19.186;2023-07-29T07:50:05;99522.69;;;29.23;48.89
49102;BME280;34913;47.520;19.186;2023-07-29T07:52:31;99531.94;;;29.48;49.04
49102;BME280;34913;47.520;19.186;2023-07-29T07:54:56;99532.75;;;29.49;49.45
49102;BME280;34913;47.520;19.186;2023-07-29T07:57:22;99529.56;;;29.57;48.02
49102;BME280;34913;47.520;19.186;2023-07-29T07:59:47;99519.34;;;29.47;45.97
49102;BME280;34913;47.520;19.186;2023-07-29T08:02:12;99526.50;;;29.54;48.39
49102;BME280;34913;47.520;19.186;2023-07-29T08:04:38;99510.78;;;29.71;48.57
49102;BME280;34913;47.520;19.186;2023-07-29T08:07:03;99519.81;;;30.14;45.73
49102;BME280;34913;47.520;19.186;2023-07-29T08:09:29;99517.97;;;30.40;46.78
49102;BME280;34913;47.520;19.186;2023-07-29T08:11:54;99518.88;;;30.61;45.98
49102;BME280;34913;47.520;19.186;2023-07-29T08:14:20;99517.59;;;30.73;44.22
49102;BME280;34913;47.520;19.186;2023-07-29T08:16:45;99519.38;;;30.47;45.71
49102;BME280;34913;47.520;19.186;2023-07-29T08:19:11;99516.75;;;30.73;45.32
49102;BME280;34913;47.520;19.186;2023-07-29T08:21:36;99512.38;;;30.67;45.69
49102;BME280;34913;47.520;19.186;2023-07-29T08:24:02;99519.81;;;30.92;46.02
49102;BME280;34913;47.520;19.186;2023-07-29T08:26:28;99513.25;;;31.18;45.89
49102;BME280;34913;47.520;19.186;2023-07-29T08:28:54;99515.47;;;31.36;43.72
49102;BME280;34913;47.520;19.186;2023-07-29T08:31:19;99514.31;;;30.81;43.09
49102;BME280;34913;47.520;19.186;2023-07-29T08:33:45;99505.25;;;30.66;45.22
49102;BME280;34913;47.520;19.186;2023-07-29T08:36:10;99508.78;;;30.71;45.62
49102;BME280;34913;47.520;19.186;2023-07-29T08:38:35;99507.66;;;30.62;45.60
49102;BME280;34913;47.520;19.186;2023-07-29T08:41:14;99505.53;;;30.74;43.78
49102;BME280;34913;47.520;19.186;2023-07-29T08:43:47;99503.88;;;30.89;46.14
49102;BME280;34913;47.520;19.186;2023-07-29T08:46:15;99504.22;;;31.28;43.21
49102;BME280;34913;47.520;19.186;2023-07-29T08:48:43;99511.88;;;31.56;44.86
49102;BME280;34913;47.520;19.186;2023-07-29T08:51:10;99502.84;;;31.56;41.45
49102;BME280;34913;47.520;19.186;2023-07-29T08:53:37;99505.03;;;31.54;41.21
49102;BME280;34913;47.520;19.186;2023-07-29T08:56:04;99502.00;;;31.60;41.74
49102;BME280;34913;47.520;19.186;2023-07-29T08:58:31;99505.00;;;31.59;42.93
49102;BME280;34913;47.520;19.186;2023-07-29T09:00:56;99505.03;;;31.44;41.36
49102;BME280;34913;47.520;19.186;2023-07-29T09:03:22;99497.06;;;31.17;40.83
49102;BME280;34913;47.520;19.186;2023-07-29T09:05:48;99498.72;;;31.07;42.57
49102;BME280;34913;47.520;19.186;2023-07-29T09:08:14;99492.69;;;31.46;42.95
49102;BME280;34913;47.520;19.186;2023-07-29T09:10:40;99489.66;;;31.43;40.17
49102;BME280;34913;47.520;19.186;2023-07-29T09:13:06;99491.34;;;31.38;39.07
49102;BME280;34913;47.520;19.186;2023-07-29T09:15:34;99489.13;;;31.61;41.58
49102;BME280;34913;47.520;19.186;2023-07-29T09:18:12;99487.44;;;31.80;40.08
49102;BME280;34913;47.520;19.186;2023-07-29T09:20:39;99483.31;;;31.88;41.15
49102;BME280;34913;47.520;19.186;2023-07-29T09:23:08;99475.59;;;31.90;38.56
49102;BME280;34913;47.520;19.186;2023-07-29T09:25:34;99485.22;;;31.92;38.41
49102;BME280;34913;47.520;19.186;2023-07-29T09:28:01;99479.47;;;31.89;35.98
49102;BME280;34913;47.520;19.186;2023-07-29T09:30:27;99480.28;;;31.89;37.03
49102;BME280;34913;47.520;19.186;2023-07-29T09:32:57;99475.09;;;31.78;36.54
49102;BME280;34913;47.520;19.186;2023-07-29T09:35:23;99473.19;;;31.58;36.48
49102;BME280;34913;47.520;19.186;2023-07-29T09:37:50;99467.13;;;31.71;38.81
49102;BME280;34913;47.520;19.186;2023-07-29T09:40:17;99476.09;;;32.07;37.25
49102;BME280;34913;47.520;19.186;2023-07-29T09:42:54;99473.66;;;32.01;37.24
49102;BME280;34913;47.520;19.186;2023-07-29T09:45:23;99464.84;;;32.04;36.09
49102;BME280;34913;47.520;19.186;2023-07-29T09:47:50;99477.72;;;32.13;35.28
49102;BME280;34913;47.520;19.186;2023-07-29T09:50:16;99470.28;;;32.19;35.20
49102;BME280;34913;47.520;19.186;2023-07-29T09:52:42;99469.53;;;31.98;35.87
49102;BME280;34913;47.520;19.186;2023-07-29T09:55:10;99470.06;;;32.05;36.93
49102;BME280;34913;47.520;19.186;2023-07-29T09:57:37;99463.81;;;31.89;36.53
49102;BME280;34913;47.520;19.186;2023-07-29T10:00:04;99451.97;;;31.99;37.14
49102;BME280;34913;47.520;19.186;2023-07-29T10:02:36;99454.94;;;32.13;37.62
49102;BME280;34913;47.520;19.186;2023-07-29T10:05:02;99455.97;;;32.27;38.85
49102;BME280;34913;47.520;19.186;2023-07-29T10:07:29;99465.03;;;32.33;36.34
49102;BME280;34913;47.520;19.186;2023-07-29T10:09:55;99460.81;;;32.45;36.55
49102;BME280;34913;47.520;19.186;2023-07-29T10:12:24;99450.47;;;32.32;36.87
49102;BME280;34913;47.520;19.186;2023-07-29T10:14:50;99456.31;;;32.10;36.93
49102;BME280;34913;47.520;19.186;2023-07-29T10:17:16;99456.59;;;32.09;37.38
49102;BME280;34913;47.520;19.186;2023-07-29T10:19:43;99457.63;;;32.23;36.16
49102;BME280;34913;47.520;19.186;2023-07-29T10:22:10;99451.66;;;32.11;34.84
49102;BME280;34913;47.520;19.186;2023-07-29T10:24:39;99455.47;;;32.15;33.81
49102;BME280;34913;47.520;19.186;2023-07-29T10:27:09;99451.59;;;32.21;37.65
49102;BME280;34913;47.520;19.186;2023-07-29T10:29:38;99446.91;;;32.21;37.52
49102;BME280;34913;47.520;19.186;2023-07-29T10:32:05;99444.75;;;32.13;34.89
49102;BME280;34913;47.520;19.186;2023-07-29T10:34:32;99445.00;;;32.22;34.43
49102;BME280;34913;47.520;19.186;2023-07-29T10:36:59;99451.22;;;32.48;34.73
49102;BME280;34913;47.520;19.186;2023-07-29T10:39:25;99452.06;;;32.43;34.41
49102;BME280;34913;47.520;19.186;2023-07-29T10:47:14;99449.00;;;31.75;36.04
49102;BME280;34913;47.520;19.186;2023-07-29T10:49:41;99446.91;;;31.42;36.38
49102;BME280;34913;47.520;19.186;2023-07-29T10:52:06;99450.16;;;31.44;35.11
49102;BME280;34913;47.520;19.186;2023-07-29T10:54:50;99445.28;;;31.30;36.58
49102;BME280;34913;47.520;19.186;2023-07-29T10:57:33;99452.66;;;30.99;35.80
49102;BME280;34913;47.520;19.186;2023-07-29T10:59:58;99446.91;;;31.01;36.85
49102;BME280;34913;47.520;19.186;2023-07-29T11:02:34;99449.63;;;30.96;37.70
49102;BME280;34913;47.520;19.186;2023-07-29T11:05:05;99449.91;;;30.94;37.85
49102;BME280;34913;47.520;19.186;2023-07-29T11:07:46;99446.88;;;30.70;39.18
49102;BME280;34913;47.520;19.186;2023-07-29T11:10:12;99438.69;;;30.75;36.25
49102;BME280;34913;47.520;19.186;2023-07-29T11:15:16;99449.53;;;30.35;39.83
49102;BME280;34913;47.520;19.186;2023-07-29T11:17:43;99441.41;;;30.75;39.29
49102;BME280;34913;47.520;19.186;2023-07-29T11:20:10;99434.84;;;31.02;37.33
49102;BME280;34913;47.520;19.186;2023-07-29T11:22:36;99441.16;;;31.12;37.69
49102;BME280;34913;47.520;19.186;2023-07-29T11:25:02;99432.66;;;31.24;38.08
49102;BME280;34913;47.520;19.186;2023-07-29T11:27:28;99438.66;;;31.42;38.81
49102;BME280;34913;47.520;19.186;2023-07-29T11:29:58;99436.22;;;31.40;37.89
49102;BME280;34913;47.520;19.186;2023-07-29T11:32:24;99436.19;;;31.04;39.12
49102;BME280;34913;47.520;19.186;2023-07-29T11:34:50;99448.53;;;30.87;37.96
49102;BME280;34913;47.520;19.186;2023-07-29T11:37:16;99440.78;;;30.48;38.74
49102;BME280;34913;47.520;19.186;2023-07-29T11:39:41;99432.38;;;30.70;37.94
49102;BME280;34913;47.520;19.186;2023-07-29T11:42:11;99432.13;;;30.81;37.45
49102;BME280;34913;47.520;19.186;2023-07-29T11:44:37;99434.50;;;30.42;39.23
49102;BME280;34913;47.520;19.186;2023-07-29T11:47:06;99436.91;;;30.18;38.58
49102;BME280;34913;47.520;19.186;2023-07-29T11:49:33;99436.03;;;29.55;39.73
49102;BME280;34913;47.520;19.186;2023-07-29T11:51:59;99430.75;;;29.96;41.43
49102;BME280;34913;47.520;19.186;2023-07-29T11:54:25;99427.88;;;30.33;40.62
49102;BME280;34913;47.520;19.186;2023-07-29T11:56:50;99432.81;;;30.31;39.09
49102;BME280;34913;47.520;19.186;2023-07-29T11:59:16;99425.66;;;30.25;40.78
49102;BME280;34913;47.520;19.186;2023-07-29T12:01:41;99424.56;;;30.16;40.82
49102;BME280;34913;47.520;19.186;2023-07-29T12:04:07;99421.03;;;30.30;41.48
49102;BME280;34913;47.520;19.186;2023-07-29T12:06:33;99416.97;;;30.43;42.32
49102;BME280;34913;47.520;19.186;2023-07-29T12:08:58;99408.75;;;30.53;39.39
49102;BME280;34913;47.520;19.186;2023-07-29T12:11:25;99408.72;;;30.38;38.51
49102;BME280;34913;47.520;19.186;2023-07-29T12:13:53;99411.19;;;30.35;40.55
49102;BME280;34913;47.520;19.186;2023-07-29T12:16:18;99408.00;;;30.68;39.81
49102;BME280;34913;47.520;19.186;2023-07-29T12:18:44;99406.09;;;30.89;39.35
49102;BME280;34913;47.520;19.186;2023-07-29T12:21:10;99401.13;;;31.06;38.91
49102;BME280;34913;47.520;19.186;2023-07-29T12:23:35;99403.63;;;30.82;39.77
49102;BME280;34913;47.520;19.186;2023-07-29T12:26:01;99403.31;;;30.69;39.32
49102;BME280;34913;47.520;19.186;2023-07-29T12:28:26;99399.97;;;30.41;41.15
49102;BME280;34913;47.520;19.186;2023-07-29T12:30:56;99394.75;;;30.29;39.70
49102;BME280;34913;47.520;19.186;2023-07-29T12:33:31;99398.09;;;30.52;41.04
49102;BME280;34913;47.520;19.186;2023-07-29T12:35:57;99393.19;;;30.90;38.79
49102;BME280;34913;47.520;19.186;2023-07-29T12:38:25;99387.44;;;30.76;38.83
49102;BME280;34913;47.520;19.186;2023-07-29T12:40:51;99387.94;;;30.63;38.35
49102;BME280;34913;47.520;19.186;2023-07-29T12:43:16;99386.56;;;30.45;40.40
49102;BME280;34913;47.520;19.186;2023-07-29T12:45:42;99374.75;;;30.24;40.85
49102;BME280;34913;47.520;19.186;2023-07-29T12:48:09;99378.28;;;30.09;38.94
49102;BME280;34913;47.520;19.186;2023-07-29T12:50:35;99380.44;;;30.02;37.78
49102;BME280;34913;47.520;19.186;2023-07-29T12:53:00;99381.78;;;29.94;39.46
49102;BME280;34913;47.520;19.186;2023-07-29T12:55:26;99384.06;;;30.23;37.81
49102;BME280;34913;47.520;19.186;2023-07-29T12:57:51;99372.34;;;30.58;38.29